createdAt,value
2022-11-15T00:02:07.609Z,10.38
2022-11-15T00:04:34.018Z,11.52
2022-11-15T00:07:00.411Z,13.95
2022-11-15T00:09:26.750Z,14.00
2022-11-15T00:11:53.084Z,14.85
2022-11-15T00:14:19.423Z,13.38
2022-11-15T00:16:45.900Z,12.77
2022-11-15T00:19:12.217Z,11.38
2022-11-15T00:21:38.534Z,13.23
2022-11-15T00:24:05.060Z,12.88
2022-11-15T00:26:31.398Z,13.10
2022-11-15T00:28:57.717Z,11.05
2022-11-15T00:31:24.001Z,12.93
2022-11-15T00:33:50.324Z,10.18
2022-11-15T00:36:16.621Z,12.40
2022-11-15T00:38:42.917Z,13.30
2022-11-15T00:41:10.175Z,12.30
2022-11-15T00:43:36.866Z,11.38
2022-11-15T00:46:03.212Z,9.88
2022-11-15T00:48:30.234Z,11.02
2022-11-15T00:50:56.549Z,12.80
2022-11-15T00:53:22.889Z,11.70
2022-11-15T00:55:49.255Z,11.60
2022-11-15T00:58:15.586Z,11.35
2022-11-15T01:00:41.960Z,11.45
2022-11-15T01:03:08.270Z,12.30
2022-11-15T01:05:34.619Z,13.20
2022-11-15T01:08:00.960Z,11.50
2022-11-15T01:10:27.314Z,10.88
2022-11-15T01:12:53.698Z,14.00
2022-11-15T01:15:20.051Z,12.73
2022-11-15T01:17:46.396Z,12.90
2022-11-15T01:20:12.881Z,15.48
2022-11-15T01:22:39.196Z,10.93
2022-11-15T01:25:05.672Z,12.23
2022-11-15T01:27:31.979Z,12.40
2022-11-15T01:29:58.310Z,12.45
2022-11-15T01:32:24.677Z,19.13
2022-11-15T01:34:50.987Z,14.25
2022-11-15T01:37:17.406Z,12.20
2022-11-15T01:39:43.761Z,17.42
2022-11-15T01:42:13.488Z,15.10
2022-11-15T01:44:43.961Z,14.35
2022-11-15T01:47:16.079Z,14.02
2022-11-15T01:49:56.282Z,14.10
2022-11-15T01:52:26.856Z,13.75
2022-11-15T01:54:59.945Z,15.18
2022-11-15T01:57:26.298Z,13.65
2022-11-15T01:59:52.706Z,14.57
2022-11-15T02:02:19.078Z,15.40
2022-11-15T02:04:48.865Z,13.93
2022-11-15T02:07:21.004Z,14.25
2022-11-15T02:09:47.760Z,16.02
2022-11-15T02:12:19.141Z,12.27
2022-11-15T02:14:50.466Z,13.48
2022-11-15T02:17:32.051Z,11.93
2022-11-15T02:20:33.246Z,13.38
2022-11-15T02:23:36.106Z,15.43
2022-11-15T02:26:11.568Z,16.65
2022-11-15T02:28:49.153Z,14.07
2022-11-15T02:31:33.693Z,15.52
2022-11-15T02:34:16.678Z,20.77
2022-11-15T02:37:21.176Z,18.80
2022-11-15T02:40:01.510Z,16.98
2022-11-15T02:42:33.342Z,14.88
2022-11-15T02:45:05.857Z,15.88
2022-11-15T02:47:38.728Z,18.27
2022-11-15T02:50:09.849Z,17.65
2022-11-15T02:52:36.346Z,19.65
2022-11-15T02:55:03.712Z,17.42
2022-11-15T02:57:29.998Z,17.42
2022-11-15T03:00:05.396Z,21.48
2022-11-15T03:03:06.718Z,21.73
2022-11-15T03:05:36.654Z,21.98
2022-11-15T03:08:41.244Z,19.58
2022-11-15T03:11:14.432Z,21.95
2022-11-15T03:14:02.203Z,27.02
2022-11-15T03:16:35.246Z,21.23
2022-11-15T03:19:35.503Z,20.52
2022-11-15T03:22:07.069Z,20.35
2022-11-15T03:24:38.585Z,25.08
2022-11-15T03:27:08.751Z,26.33
2022-11-15T03:29:40.973Z,22.73
2022-11-15T03:32:14.647Z,23.50
2022-11-15T03:35:01.263Z,21.20
2022-11-15T03:37:37.578Z,22.58
2022-11-15T03:40:05.186Z,21.27
2022-11-15T03:42:40.149Z,22.48
2022-11-15T03:45:16.619Z,28.33
2022-11-15T03:47:49.168Z,26.08
2022-11-15T03:50:19.397Z,24.17
2022-11-15T03:52:47.523Z,22.70
2022-11-15T03:55:17.883Z,25.98
2022-11-15T03:57:44.216Z,22.08
2022-11-15T04:00:11.812Z,23.25
2022-11-15T04:02:38.487Z,26.42
2022-11-15T04:05:05.042Z,25.23
2022-11-15T04:07:31.546Z,23.45
2022-11-15T04:09:58.194Z,25.70
2022-11-15T04:12:24.596Z,24.80
2022-11-15T04:14:50.909Z,20.73
2022-11-15T04:17:17.210Z,19.52
2022-11-15T04:19:43.507Z,22.35
2022-11-15T04:22:09.816Z,23.52
2022-11-15T04:24:36.120Z,24.45
2022-11-15T04:27:02.540Z,28.15
2022-11-15T04:29:30.509Z,23.77
2022-11-15T04:31:56.838Z,24.83
2022-11-15T04:34:23.155Z,23.80
2022-11-15T04:36:49.472Z,24.23
2022-11-15T04:39:15.859Z,27.15
2022-11-15T04:41:42.176Z,23.20
2022-11-15T04:44:08.515Z,26.10
2022-11-15T04:46:34.837Z,24.63
2022-11-15T04:49:01.146Z,26.38
2022-11-15T04:51:27.681Z,23.48
2022-11-15T04:53:53.993Z,25.83
2022-11-15T04:56:20.303Z,25.65
2022-11-15T04:58:50.018Z,23.55
2022-11-15T05:01:16.679Z,21.85
2022-11-15T05:03:43.575Z,22.38
2022-11-15T05:06:09.894Z,20.13
2022-11-15T05:08:36.231Z,23.77
2022-11-15T05:11:02.556Z,24.38
2022-11-15T05:13:29.069Z,21.65
2022-11-15T05:15:55.582Z,19.45
2022-11-15T05:18:23.775Z,18.92
2022-11-15T05:20:50.291Z,20.30
2022-11-15T05:23:16.599Z,19.17
2022-11-15T05:25:43.150Z,19.25
2022-11-15T05:28:09.593Z,19.70
2022-11-15T05:30:35.935Z,19.85
2022-11-15T05:33:02.786Z,19.23
2022-11-15T05:35:46.265Z,22.50
2022-11-15T05:38:12.622Z,24.83
2022-11-15T05:40:39.047Z,19.63
2022-11-15T05:43:06.422Z,18.60
2022-11-15T05:45:34.918Z,18.35
2022-11-15T05:48:04.629Z,16.83
2022-11-15T05:50:31.571Z,17.58
2022-11-15T05:53:02.281Z,19.38
2022-11-15T05:55:32.139Z,17.52
2022-11-15T05:57:58.654Z,20.02
2022-11-15T06:00:26.157Z,22.10
2022-11-15T06:02:52.462Z,22.83
2022-11-15T06:05:18.807Z,22.10
2022-11-15T06:07:45.235Z,19.30
2022-11-15T06:10:11.742Z,24.55
2022-11-15T06:12:38.109Z,20.48
2022-11-15T06:15:04.723Z,19.80
2022-11-15T06:17:31.081Z,19.85
2022-11-15T06:19:57.452Z,21.65
2022-11-15T06:22:23.760Z,17.38
2022-11-15T06:24:50.144Z,18.35
2022-11-15T06:27:16.525Z,18.27
2022-11-15T06:29:42.903Z,17.27
2022-11-15T06:32:09.283Z,20.92
2022-11-15T06:34:35.585Z,19.73
2022-11-15T06:37:02.042Z,19.30
2022-11-15T06:39:28.432Z,19.90
2022-11-15T06:41:54.814Z,18.38
2022-11-15T06:44:21.205Z,17.67
2022-11-15T06:46:47.501Z,17.88
2022-11-15T06:49:13.794Z,17.27
2022-11-15T06:51:40.099Z,18.35
2022-11-15T06:54:06.438Z,14.88
2022-11-15T06:56:34.588Z,16.02
2022-11-15T06:59:00.999Z,15.35
2022-11-15T07:01:27.339Z,15.48
2022-11-15T07:03:53.720Z,14.07
2022-11-15T07:06:20.054Z,15.52
2022-11-15T07:08:46.417Z,13.50
2022-11-15T07:11:12.738Z,16.95
2022-11-15T07:13:39.046Z,15.45
2022-11-15T07:16:06.980Z,16.05
2022-11-15T07:18:38.322Z,13.02
2022-11-15T07:21:06.628Z,12.43
2022-11-15T07:23:33.779Z,14.73
2022-11-15T07:26:00.512Z,13.80
2022-11-15T07:28:27.435Z,12.15
2022-11-15T07:30:54.200Z,11.93
2022-11-15T07:33:20.563Z,12.75
2022-11-15T07:35:47.534Z,13.10
2022-11-15T07:38:13.844Z,13.52
2022-11-15T07:40:40.159Z,13.25
2022-11-15T07:43:08.420Z,11.45
2022-11-15T07:45:35.013Z,10.52
2022-11-15T07:48:01.414Z,14.05
2022-11-15T07:50:28.559Z,10.23
2022-11-15T07:52:59.697Z,10.73
2022-11-15T07:55:28.275Z,9.75
2022-11-15T07:58:07.828Z,10.38
2022-11-15T08:00:34.526Z,8.68
2022-11-15T08:03:12.373Z,11.15
2022-11-15T08:05:39.748Z,11.73
2022-11-15T08:08:07.067Z,9.18
2022-11-15T08:10:39.262Z,10.02
2022-11-15T08:13:11.909Z,11.00
2022-11-15T08:15:38.830Z,9.82
2022-11-15T08:18:07.802Z,9.23
2022-11-15T08:20:34.199Z,8.82
2022-11-15T08:23:02.369Z,10.68
2022-11-15T08:25:30.708Z,9.90
2022-11-15T08:27:59.167Z,8.02
2022-11-15T08:30:26.159Z,9.25
2022-11-15T08:32:53.719Z,8.60
2022-11-15T08:35:26.150Z,9.98
2022-11-15T08:37:55.161Z,10.88
2022-11-15T08:40:21.701Z,9.40
2022-11-15T08:42:48.597Z,10.00
2022-11-15T08:45:15.668Z,10.68
2022-11-15T08:47:41.992Z,10.48
2022-11-15T08:50:08.829Z,7.13
2022-11-15T08:52:35.216Z,6.80
2022-11-15T08:55:01.626Z,6.25
2022-11-15T08:57:30.167Z,6.90
2022-11-15T08:59:56.922Z,7.00
2022-11-15T09:02:23.218Z,5.75
2022-11-15T09:04:49.566Z,4.82
2022-11-15T09:07:16.136Z,6.82
2022-11-15T09:09:42.631Z,4.80
2022-11-15T09:12:09.266Z,3.20
2022-11-15T09:14:35.604Z,5.20
2022-11-15T09:17:02.370Z,4.68
2022-11-15T09:19:28.837Z,6.32
2022-11-15T09:21:55.269Z,3.97
2022-11-15T09:24:21.593Z,5.97
2022-11-15T09:26:51.036Z,4.85
2022-11-15T09:29:17.859Z,5.10
2022-11-15T09:31:44.218Z,2.88
2022-11-15T09:34:10.533Z,5.60
2022-11-15T09:36:36.873Z,5.93
2022-11-15T09:39:03.325Z,6.18
2022-11-15T09:41:38.868Z,3.90
2022-11-15T09:44:25.767Z,3.67
2022-11-15T09:46:52.342Z,4.05
2022-11-15T09:49:19.558Z,4.03
2022-11-15T09:51:49.998Z,3.67
2022-11-15T09:54:52.709Z,3.08
2022-11-15T09:57:32.191Z,2.42
2022-11-15T10:03:17.322Z,4.45
2022-11-15T10:05:48.188Z,3.47
2022-11-15T10:08:21.750Z,4.97
2022-11-15T10:11:15.754Z,4.28
2022-11-15T10:13:46.716Z,3.75
2022-11-15T10:16:34.658Z,2.00
2022-11-15T10:19:11.029Z,3.80
2022-11-15T10:21:55.635Z,2.42
2022-11-15T10:24:27.003Z,2.20
2022-11-15T10:26:53.366Z,4.60
2022-11-15T10:29:26.986Z,4.00
2022-11-15T10:31:53.740Z,2.03
2022-11-15T10:34:22.726Z,2.83
2022-11-15T10:36:57.574Z,3.58
2022-11-15T10:41:51.146Z,1.92
2022-11-15T10:44:17.409Z,1.63
2022-11-15T10:46:47.791Z,1.90
2022-11-15T10:49:18.658Z,2.85
2022-11-15T10:51:50.839Z,3.38
2022-11-15T10:54:38.438Z,3.20
2022-11-15T10:57:19.461Z,3.75
2022-11-15T10:59:48.831Z,3.15
2022-11-15T11:02:42.554Z,1.60
2022-11-15T11:05:29.657Z,1.45
2022-11-15T11:08:12.737Z,1.50
2022-11-15T11:11:00.190Z,2.80
2022-11-15T11:13:26.848Z,2.83
2022-11-15T11:16:01.213Z,2.28
2022-11-15T11:18:55.198Z,5.05
2022-11-15T11:21:54.835Z,2.83
2022-11-15T11:24:39.857Z,2.13
2022-11-15T11:27:24.090Z,2.28
2022-11-15T11:29:56.155Z,2.78
2022-11-15T11:32:25.192Z,2.60
2022-11-15T11:34:54.470Z,2.65
2022-11-15T11:37:45.875Z,1.95
2022-11-15T11:40:30.401Z,4.93
2022-11-15T11:43:06.080Z,4.70
2022-11-15T11:45:35.169Z,5.38
2022-11-15T11:48:22.018Z,3.47
2022-11-15T11:50:49.836Z,4.18
2022-11-15T11:53:24.493Z,5.45
2022-11-15T11:55:54.338Z,4.32
2022-11-15T11:58:31.038Z,2.00
2022-11-15T12:01:22.855Z,3.53
2022-11-15T12:03:52.342Z,3.67
2022-11-15T12:06:40.479Z,2.15
2022-11-15T12:09:22.638Z,2.92
2022-11-15T12:12:14.603Z,2.00
2022-11-15T12:14:52.683Z,2.58
2022-11-15T12:17:24.558Z,3.53
2022-11-15T12:19:53.463Z,2.20
2022-11-15T12:22:35.135Z,3.22
2022-11-15T12:25:08.415Z,2.22
2022-11-15T12:27:57.675Z,2.70
2022-11-15T12:30:26.586Z,3.05
2022-11-15T12:32:57.897Z,3.85
2022-11-15T12:35:39.485Z,2.85
2022-11-15T12:38:10.928Z,3.10
2022-11-15T12:40:40.233Z,2.78
2022-11-15T12:43:09.324Z,3.47
2022-11-15T12:45:39.075Z,3.50
2022-11-15T12:48:17.357Z,3.15
2022-11-15T12:50:52.874Z,2.97
2022-11-15T12:53:25.212Z,2.42
2022-11-15T12:56:13.453Z,3.25
2022-11-15T12:58:54.805Z,4.88
2022-11-15T13:01:33.384Z,1.92
2022-11-15T13:04:20.765Z,2.83
2022-11-15T13:06:48.506Z,1.70
2022-11-15T13:09:33.069Z,2.22
2022-11-15T13:12:10.468Z,3.85
2022-11-15T13:14:58.626Z,2.20
2022-11-15T13:17:32.674Z,2.28
2022-11-15T13:20:00.792Z,3.05
2022-11-15T13:22:59.236Z,2.08
2022-11-15T13:25:37.562Z,1.95
2022-11-15T13:28:15.994Z,2.65
2022-11-15T13:30:52.001Z,3.38
2022-11-15T13:33:22.983Z,3.00
2022-11-15T13:35:53.770Z,2.92
2022-11-15T13:38:26.408Z,5.80
2022-11-15T13:40:52.932Z,8.80
2022-11-15T13:43:22.022Z,7.32
2022-11-15T13:46:13.247Z,5.03
2022-11-15T13:48:42.000Z,6.22
2022-11-15T13:51:40.279Z,3.40
2022-11-15T13:54:26.572Z,5.18
2022-11-15T13:57:01.681Z,4.63
2022-11-15T13:59:34.322Z,5.32
2022-11-15T14:02:11.964Z,4.15
2022-11-15T14:04:45.944Z,3.75
2022-11-15T14:07:18.930Z,5.57
2022-11-15T14:09:45.307Z,6.13
2022-11-15T14:12:31.026Z,5.95
2022-11-15T14:14:58.928Z,5.45
2022-11-15T14:17:36.767Z,6.82
2022-11-15T14:20:20.973Z,4.25
2022-11-15T14:22:55.902Z,6.13
2022-11-15T14:28:15.030Z,4.03
2022-11-15T14:33:26.333Z,4.68
2022-11-15T14:35:53.434Z,6.35
2022-11-15T14:38:19.770Z,4.97
2022-11-15T14:40:46.255Z,3.92
2022-11-15T14:43:13.048Z,4.47
2022-11-15T14:45:40.221Z,5.05
2022-11-15T14:48:06.865Z,3.15
2022-11-15T14:50:33.986Z,7.45
2022-11-15T14:53:01.025Z,6.05
2022-11-15T14:55:27.285Z,5.50
2022-11-15T14:57:53.623Z,4.43
2022-11-15T15:00:20.759Z,3.78
2022-11-15T15:02:48.966Z,4.55
2022-11-15T15:05:21.764Z,3.67
2022-11-15T15:07:48.709Z,3.78
2022-11-15T15:13:04.267Z,4.72
2022-11-15T15:15:36.738Z,3.88
2022-11-15T15:18:05.390Z,3.33
2022-11-15T15:20:38.987Z,2.92
2022-11-15T15:23:05.304Z,4.28
2022-11-15T15:25:34.217Z,3.78
2022-11-15T15:28:00.844Z,4.30
2022-11-15T15:30:29.556Z,4.15
2022-11-15T15:32:56.511Z,4.20
2022-11-15T15:35:22.897Z,5.78
2022-11-15T15:37:49.996Z,5.88
2022-11-15T15:40:20.160Z,4.85
2022-11-15T15:42:47.110Z,6.00
2022-11-15T15:45:14.259Z,3.30
2022-11-15T15:47:40.636Z,3.47
2022-11-15T15:50:23.959Z,3.38
2022-11-15T15:52:52.385Z,5.97
2022-11-15T15:55:18.879Z,3.33
2022-11-15T15:57:45.305Z,5.18
2022-11-15T16:00:12.006Z,4.45
2022-11-15T16:02:40.614Z,2.55
2022-11-15T16:05:08.102Z,4.55
2022-11-15T16:07:35.137Z,2.65
2022-11-15T16:10:01.867Z,5.10
2022-11-15T16:12:30.004Z,6.18
2022-11-15T16:14:56.355Z,5.25
2022-11-15T16:17:30.078Z,2.95
2022-11-15T16:20:01.631Z,3.20
2022-11-15T16:22:28.011Z,3.92
2022-11-15T16:24:54.325Z,3.70
2022-11-15T16:27:22.218Z,4.45
2022-11-15T16:29:49.198Z,5.13
2022-11-15T16:32:16.497Z,6.45
2022-11-15T16:34:48.487Z,5.30
2022-11-15T16:37:24.546Z,4.50
2022-11-15T16:39:51.559Z,4.45
2022-11-15T16:42:17.856Z,7.85
2022-11-15T16:44:44.243Z,7.43
2022-11-15T16:47:20.283Z,6.32
2022-11-15T16:49:47.030Z,6.95
2022-11-15T16:52:17.504Z,6.13
2022-11-15T16:54:46.564Z,4.78
2022-11-15T16:57:12.849Z,5.90
2022-11-15T16:59:39.159Z,8.63
2022-11-15T17:02:12.143Z,7.30
2022-11-15T17:04:38.588Z,3.90
2022-11-15T17:07:04.959Z,6.78
2022-11-15T17:09:31.401Z,3.70
2022-11-15T17:11:57.696Z,4.63
2022-11-15T17:14:24.010Z,4.72
2022-11-15T17:16:50.319Z,5.50
2022-11-15T17:19:19.158Z,5.10
2022-11-15T17:21:46.458Z,5.35
2022-11-15T17:24:12.904Z,6.60
2022-11-15T17:26:41.016Z,5.25
2022-11-15T17:29:07.572Z,5.38
2022-11-15T17:31:35.260Z,5.47
2022-11-15T17:34:03.864Z,6.65
2022-11-15T17:36:30.401Z,4.30
2022-11-15T17:38:59.781Z,4.60
2022-11-15T17:41:27.119Z,5.53
2022-11-15T17:43:53.644Z,8.63
2022-11-15T17:46:20.868Z,4.78
2022-11-15T17:48:48.324Z,5.05
2022-11-15T17:51:16.954Z,3.60
2022-11-15T17:53:46.328Z,11.23
2022-11-15T17:56:15.398Z,3.75
2022-11-15T17:58:42.548Z,3.40
2022-11-15T18:01:22.601Z,5.78
2022-11-15T18:03:49.697Z,4.82
2022-11-15T18:06:17.200Z,5.32
2022-11-15T18:08:45.571Z,6.25
2022-11-15T18:11:13.100Z,5.97
2022-11-15T18:13:41.284Z,3.42
2022-11-15T18:16:11.064Z,5.40
2022-11-15T18:18:37.516Z,7.10
2022-11-15T18:21:08.197Z,7.18
2022-11-15T18:23:35.559Z,7.43
2022-11-15T18:26:03.714Z,5.95
2022-11-15T18:28:35.515Z,5.07
2022-11-15T18:31:04.020Z,5.38
2022-11-15T18:33:34.071Z,5.38
2022-11-15T18:36:03.085Z,6.78
2022-11-15T18:38:29.755Z,6.75
2022-11-15T18:41:06.766Z,5.10
2022-11-15T18:43:33.450Z,6.05
2022-11-15T18:46:08.136Z,5.80
2022-11-15T18:48:36.393Z,5.75
2022-11-15T18:51:07.806Z,5.78
2022-11-15T18:53:35.421Z,6.22
2022-11-15T18:56:03.701Z,7.05
2022-11-15T18:58:31.708Z,7.15
2022-11-15T19:01:10.512Z,7.00
2022-11-15T19:03:39.584Z,5.13
2022-11-15T19:06:07.372Z,5.53
2022-11-15T19:08:35.607Z,8.82
2022-11-15T19:11:06.342Z,6.78
2022-11-15T19:13:33.082Z,7.78
2022-11-15T19:16:01.380Z,8.18
2022-11-15T19:18:28.512Z,8.60
2022-11-15T19:20:55.288Z,8.25
2022-11-15T19:23:22.121Z,7.97
2022-11-15T19:25:58.788Z,6.53
2022-11-15T19:28:26.559Z,7.72
2022-11-15T19:30:53.188Z,7.53
2022-11-15T19:33:23.793Z,6.30
2022-11-15T19:36:00.050Z,7.93
2022-11-15T19:38:26.385Z,7.55
2022-11-15T19:40:58.156Z,9.50
2022-11-15T19:43:24.543Z,6.85
2022-11-15T19:45:59.450Z,6.38
2022-11-15T19:48:30.435Z,7.35
2022-11-15T19:51:03.905Z,6.97
2022-11-15T19:53:35.335Z,5.43
2022-11-15T19:56:07.217Z,8.07
2022-11-15T19:58:33.823Z,7.95
2022-11-15T20:01:04.926Z,6.60
2022-11-15T20:03:32.994Z,6.60
2022-11-15T20:06:08.883Z,6.65
2022-11-15T20:08:36.192Z,6.85
2022-11-15T20:11:04.243Z,9.52
2022-11-15T20:13:31.203Z,8.18
2022-11-15T20:15:57.822Z,6.30
2022-11-15T20:18:27.613Z,7.25
2022-11-15T20:20:54.814Z,6.80
2022-11-15T20:23:21.112Z,6.25
2022-11-15T20:25:48.188Z,10.13
2022-11-15T20:28:22.947Z,6.47
2022-11-15T20:30:52.650Z,5.72
2022-11-15T20:33:19.618Z,7.28
2022-11-15T20:35:45.951Z,6.43
2022-11-15T20:38:12.506Z,7.20
2022-11-15T20:40:40.841Z,6.45
2022-11-15T20:43:11.868Z,6.68
2022-11-15T20:45:38.725Z,7.13
2022-11-15T20:48:05.706Z,5.70
2022-11-15T20:50:46.910Z,5.70
2022-11-15T20:53:16.290Z,7.75
2022-11-15T20:55:44.645Z,4.88
2022-11-15T20:58:11.171Z,6.20
2022-11-15T21:00:37.883Z,6.40
2022-11-15T21:03:05.168Z,5.72
2022-11-15T21:05:31.481Z,4.93
2022-11-15T21:07:57.806Z,8.43
2022-11-15T21:10:24.121Z,5.30
2022-11-15T21:12:50.473Z,6.20
2022-11-15T21:15:16.891Z,6.13
2022-11-15T21:17:43.211Z,5.68
2022-11-15T21:20:10.158Z,7.00
2022-11-15T21:22:36.542Z,6.05
2022-11-15T21:25:03.074Z,7.78
2022-11-15T21:27:29.428Z,5.70
2022-11-15T21:29:55.735Z,5.78
2022-11-15T21:32:22.142Z,5.13
2022-11-15T21:34:48.473Z,4.43
2022-11-15T21:37:14.792Z,4.95
2022-11-15T21:39:41.121Z,4.78
2022-11-15T21:42:07.520Z,4.45
2022-11-15T21:44:33.832Z,5.85
2022-11-15T21:47:00.246Z,5.80
2022-11-15T21:49:26.545Z,5.25
2022-11-15T21:51:52.858Z,6.35
2022-11-15T21:54:19.152Z,4.60
2022-11-15T21:56:45.512Z,5.72
2022-11-15T21:59:11.831Z,6.30
2022-11-15T22:01:38.198Z,4.60
2022-11-15T22:04:04.861Z,5.15
2022-11-15T22:06:31.214Z,6.10
2022-11-15T22:08:57.719Z,5.07
2022-11-15T22:11:24.066Z,5.28
2022-11-15T22:13:50.389Z,6.88
2022-11-15T22:16:16.763Z,4.63
2022-11-15T22:18:43.359Z,5.80
2022-11-15T22:21:12.395Z,6.65
2022-11-15T22:23:38.977Z,5.40
2022-11-15T22:26:06.579Z,5.20
2022-11-15T22:28:33.687Z,8.00
2022-11-15T22:31:00.196Z,3.88
2022-11-15T22:33:28.731Z,5.20
2022-11-15T22:35:55.300Z,5.43
2022-11-15T22:38:22.617Z,5.63
2022-11-15T22:40:49.360Z,6.20
2022-11-15T22:43:18.273Z,5.15
2022-11-15T22:45:52.894Z,5.88
2022-11-15T22:48:21.255Z,4.35
2022-11-15T22:50:47.820Z,6.00
2022-11-15T22:53:14.188Z,5.97
2022-11-15T22:55:41.069Z,5.75
2022-11-15T22:58:07.725Z,5.78
2022-11-15T23:00:34.732Z,7.38
2022-11-15T23:03:01.199Z,4.40
2022-11-15T23:05:27.555Z,4.78
2022-11-15T23:07:53.930Z,6.80
2022-11-15T23:10:20.294Z,6.82
2022-11-15T23:12:47.198Z,7.60
2022-11-15T23:15:13.537Z,5.55
2022-11-15T23:17:39.853Z,5.20
2022-11-15T23:20:22.555Z,5.75
2022-11-15T23:22:53.383Z,7.80
2022-11-15T23:25:19.730Z,6.93
2022-11-15T23:27:46.060Z,8.98
2022-11-15T23:30:12.851Z,6.32
2022-11-15T23:32:39.214Z,6.95
2022-11-15T23:35:05.779Z,3.95
2022-11-15T23:37:32.827Z,4.72
2022-11-15T23:39:59.174Z,7.38
2022-11-15T23:42:25.522Z,4.90
2022-11-15T23:44:51.878Z,5.97
2022-11-15T23:47:19.151Z,6.18
2022-11-15T23:49:45.558Z,5.90
2022-11-15T23:52:11.893Z,8.07
2022-11-15T23:54:38.247Z,9.93
2022-11-15T23:57:04.584Z,7.00
2022-11-15T23:59:30.901Z,6.22
